Search:

Type: Posts; User: inthebeginning

Search: Search took 0.00 seconds.

  1. Replies
    16
    Views
    6,364

    I'm in Denver, but my sister in Sound Beach, NY...

    I'm in Denver, but my sister in Sound Beach, NY reported approx. 20 - 25 inches with drifts up to 3 feet.
    <edit> It's gonna be 55 here today! :D
  2. Replies
    12
    Views
    5,321

    Does the content of the glass have any effect on...

    Does the content of the glass have any effect on the amount of condensation? ;)
  3. Replies
    12
    Views
    5,321

    This has got to be easier than it appears. As I...

    This has got to be easier than it appears. As I understand it, Relative Humidity is the amount of water available in the atmosphere. Just because KMWN was at 100% and only 38% at Death Valley, the...
  4. It was almost uncomfortable at the airport this...

    It was almost uncomfortable at the airport this AM at 0dark:30.
  5. KDEN 091253Z 14009KT 10SM FEW100 M27/M30 A2974...

    KDEN 091253Z 14009KT 10SM FEW100 M27/M30 A2974 RMK AO2 SLP188 T12671300

    that equates to a -36 windchill :eek: brrrrrrr...
  6. Replies
    4
    Views
    2,625

    Minus the damage and personal tragedy, my...

    Minus the damage and personal tragedy, my personal favorite was the Storm of the Century. I was just starting as a airline dispatcher/crew scheduler for a sizeable commuter airline that just...
  7. Replies
    4
    Views
    1,863

    Veterans Day - Thank You

    I am a veteran that served during peacetime right before the first Gulf War. To all that served before and after, and to all who shall serve in times ahead...Thank You.
    ...
  8. Unofficially 18" in my yard...I'm about 26 miles...

    Unofficially 18" in my yard...I'm about 26 miles south of the official Denver reporting station. If this is a peek at things to come this winter, I'm scared!:eek:...
  9. KDEN 251353Z 03011KT 10SM SCT006 BKN010 OVC022...

    KDEN 251353Z 03011KT 10SM SCT006 BKN010 OVC022 02/01 A3007 RMK AO2 SLP167 T00170006

    Look out winter, here we come!

    KDEN 271740Z 2718/2824 VRB06KT P6SM SCT080 OVC140
    FM272100 05010KT P6SM...
  10. Replies
    26
    Views
    6,883

    At least you don't have to worry about the evil...

    At least you don't have to worry about the evil Jackalopes we have here in CO! :D
  11. Some nice sunrises and sets in recent days with...

    Some nice sunrises and sets in recent days with the smoke from the CA, UT and western CO fires. We've been very hazy all day. Hope friends and family are all OK.
  12. I was just jumping around the NWS map...

    I was just jumping around the NWS map that afternoon and saw the red tornado warning box in ME and thought... nah, can't be! That's what we've been dealing with alot this summer here in sunny CO. ...
  13. It's great here... KAPA 211953Z 10005KT 10SM...

    It's great here... KAPA 211953Z 10005KT 10SM FEW070 27/03 A3025 RMK AO2 SLP175 T02720028

    I'm looking at you all back east..:eek: Take care!

    Sent: 15:19 CDT on 08-21-2009
    Event: Tornado...
  14. That would be nice! However, here at 39.7391667,...

    That would be nice! However, here at 39.7391667, it may be a while. :)
  15. Any photos of a green flash from MWN?...

    Any photos of a green flash from MWN?
    Bueller...Bueller...;)
  16. That's cool, right on! I try to get our obs to...

    That's cool, right on! I try to get our obs to put in FU when our ARFF guys are doing training.:)
  17. Wait a second...It's still July, right?:confused:...

    Wait a second...It's still July, right?:confused:

    KDEN 301153Z 25004KT 10SM FEW007 BKN048 OVC060 11/09 A3020 RMK AO2 SLP185 60000 70023 T01110089 10117 20106 55003 $

    KMWN 301152Z 32021KT 0SM...
  18. What's the weather like where you are right now?

    Since we're all here because of our passion for weather, I thought this would be an interesting thread...I've also seen it elsewhere. ;)

    Tell us what's going on weather-wise in your part of the...
  19. Hey gnome, come on out! I've got a million of...

    Hey gnome, come on out! I've got a million of them. :)
    http://home.comcast.net/~mr.lubes/pwpimages/mamma1.jpg
    http://home.comcast.net/~mr.lubes/pwpimages/mamma2.jpg

    You'd probably do a better...
  20. It was quite a sight, and lasted for a while. I...

    It was quite a sight, and lasted for a while. I just checked the METAR's from that about the time I took that pic...

    METAR KDEN 221553Z 21004KT 2SM BR BKN003 BKN006 M07/M08 A3034 RMK AO2 SFC VIS...
  21. Replies
    7
    Views
    1,600

    Thank you, as long as there are mountains, it's...

    Thank you, as long as there are mountains, it's all God's Country! ;)
  22. Clouds and other Atmospheric Optical Phenomena

    Looked around and didn't find any threads to fit, and didn't want to just randomly post these. I'm sure some of you have some really great photos to fit this category. :)

    A little after sunrise...
  23. Replies
    97
    Views
    27,880

    Sunrise was at my back...lovely moonset over the...

    Sunrise was at my back...lovely moonset over the Rockies and my place of work!
    http://home.comcast.net/~mr.lubes/pwpimages/IMG_0087(1).jpg
    ...
  24. Replies
    7
    Views
    1,600

    Thanks for the warm welcomes!

    Thanks for the warm welcomes!
  25. Replies
    7
    Views
    1,600

    Finally registered and joined!

    Hello all, been lurking here for a while and was a MWOBS member years ago. Just 're-upped' my membership, it had been a few years. Self proclaimed weather geek...almost did an internship many moons...
Results 1 to 25 of 25